MYGF METAR and TAF weather

Enter ICAO airport designator
Station Type Date Time Source
MYGF METAR 2022/12/04 11:00 UTC NOAA

MYGF 041100Z VRB02KT 9999 FEW020 17/16 A3014


Station Type Date Time Source
MYGF Decoded METAR 2022/12/04 11:00 UTC NOAA

Freeport, Grand Bahama, Bahamas, The (MYGF) 26-33N 078-42W 11M
Dec 04, 2022 - 06:00 AM EST / 2022.12.04 1100 UTC
Wind: Variable at 2 MPH (2 KT):0
Visibility: greater than 7 mile(s):0
Sky conditions: mostly clear
Temperature: 62 F (17 C)
Dew Point: 60 F (16 C)
Relative Humidity: 93%
Pressure (altimeter): 30.14 in. Hg (1020 hPa)
ob: MYGF 041100Z VRB02KT 9999 FEW020 17/16 A3014
cycle: 11

Station Type Date Time Source
MYGF TAF 2022/12/04 12:12 UTC NOAA

TAF MYGF 041100Z 0412/0512 07010KT 9999 SCT030

Example: see airport list